createdAt,value
2022-10-24T00:02:51.697Z,3.98
2022-10-24T00:22:57.365Z,4.24
2022-10-24T00:43:03.558Z,5.92
2022-10-24T01:03:09.291Z,4.69
2022-10-24T01:23:15.449Z,4.51
2022-10-24T01:43:21.227Z,5.11
2022-10-24T02:03:26.979Z,5.02
2022-10-24T02:23:32.721Z,5.35
2022-10-24T02:43:38.907Z,4.97
2022-10-24T03:03:45.088Z,5.79
2022-10-24T03:23:50.819Z,6.80
2022-10-24T03:43:56.591Z,6.68
2022-10-24T04:04:02.401Z,8.30
2022-10-24T04:24:08.646Z,8.45
2022-10-24T04:44:14.421Z,10.27
2022-10-24T05:04:20.710Z,8.76
2022-10-24T05:24:26.485Z,8.14
2022-10-24T05:44:32.693Z,10.13
2022-10-24T06:04:38.474Z,11.35
2022-10-24T06:24:44.243Z,9.84
2022-10-24T06:44:50.050Z,9.07
2022-10-24T07:04:56.167Z,11.54
2022-10-24T07:25:01.915Z,11.46
2022-10-24T07:45:07.865Z,12.88
2022-10-24T08:05:16.096Z,12.13
2022-10-24T08:25:19.294Z,11.46
2022-10-24T08:45:25.044Z,9.57
2022-10-24T09:05:31.226Z,9.03
2022-10-24T09:25:36.987Z,8.29
2022-10-24T09:45:43.241Z,7.98
2022-10-24T10:05:48.993Z,8.12
2022-10-24T10:25:54.731Z,8.82
2022-10-24T10:46:00.474Z,10.09
2022-10-24T11:06:06.246Z,8.37
2022-10-24T11:26:12.472Z,9.07
2022-10-24T11:46:18.302Z,8.98
2022-10-24T12:06:24.083Z,8.47
2022-10-24T12:26:30.280Z,6.85
2022-10-24T12:46:36.513Z,6.84
2022-10-24T13:06:45.441Z,7.04
2022-10-24T13:26:48.060Z,6.91
2022-10-24T13:46:54.858Z,3.97
2022-10-24T14:06:59.589Z,6.53
2022-10-24T14:27:05.796Z,6.02
2022-10-24T14:47:11.990Z,5.65
2022-10-24T15:07:17.782Z,6.74
2022-10-24T15:27:23.622Z,5.79
2022-10-24T15:47:29.430Z,2.96
2022-10-24T16:07:35.689Z,3.54
2022-10-24T16:27:41.404Z,3.97
2022-10-24T16:47:47.262Z,6.73
2022-10-24T17:07:53.562Z,5.62
2022-10-24T17:27:59.721Z,7.95
2022-10-24T17:48:05.473Z,7.55
2022-10-24T18:08:11.687Z,8.08
2022-10-24T18:28:17.877Z,8.65
2022-10-24T18:48:24.121Z,7.60
2022-10-24T19:08:29.937Z,5.25
2022-10-24T19:28:35.731Z,5.20
2022-10-24T19:48:41.677Z,8.01
2022-10-24T20:08:47.396Z,6.66
2022-10-24T20:28:53.185Z,4.17
2022-10-24T20:48:59.369Z,7.67
2022-10-24T21:09:05.645Z,4.72
2022-10-24T21:29:27.955Z,5.87
2022-10-24T21:49:17.136Z,4.67
2022-10-24T22:09:22.855Z,4.16
2022-10-24T22:29:29.086Z,3.74
2022-10-24T22:49:34.774Z,5.28
2022-10-24T23:09:40.509Z,4.91
2022-10-24T23:29:46.260Z,3.92
2022-10-24T23:49:52.071Z,3.78
